sensor_id;sensor_type;location;lat;lon;timestamp;pressure;altitude;pressure_sealevel;temperature
20736;BMP180;10528;52.124;5.196;2022-08-19T00:00:37;101310.00;;;25.40
20736;BMP180;10528;52.124;5.196;2022-08-19T00:03:06;101310.00;;;25.40
20736;BMP180;10528;52.124;5.196;2022-08-19T00:05:33;101294.00;;;25.30
20736;BMP180;10528;52.124;5.196;2022-08-19T00:08:01;101293.00;;;25.30
20736;BMP180;10528;52.124;5.196;2022-08-19T00:10:28;101294.00;;;25.30
20736;BMP180;10528;52.124;5.196;2022-08-19T00:12:55;101305.00;;;25.30
20736;BMP180;10528;52.124;5.196;2022-08-19T00:15:22;101304.00;;;25.30
20736;BMP180;10528;52.124;5.196;2022-08-19T00:17:49;101315.00;;;25.20
20736;BMP180;10528;52.124;5.196;2022-08-19T00:20:20;101315.00;;;25.20
20736;BMP180;10528;52.124;5.196;2022-08-19T00:22:47;101311.00;;;25.20
20736;BMP180;10528;52.124;5.196;2022-08-19T00:25:16;101310.00;;;25.20
20736;BMP180;10528;52.124;5.196;2022-08-19T00:27:43;101306.00;;;25.20
20736;BMP180;10528;52.124;5.196;2022-08-19T00:30:11;101309.00;;;25.20
20736;BMP180;10528;52.124;5.196;2022-08-19T00:32:39;101299.00;;;25.10
20736;BMP180;10528;52.124;5.196;2022-08-19T00:35:06;101308.00;;;25.10
20736;BMP180;10528;52.124;5.196;2022-08-19T00:37:34;101303.00;;;25.10
20736;BMP180;10528;52.124;5.196;2022-08-19T00:40:04;101309.00;;;25.10
20736;BMP180;10528;52.124;5.196;2022-08-19T00:42:32;101303.00;;;25.10
20736;BMP180;10528;52.124;5.196;2022-08-19T00:44:59;101301.00;;;25.00
20736;BMP180;10528;52.124;5.196;2022-08-19T00:47:26;101297.00;;;25.00
20736;BMP180;10528;52.124;5.196;2022-08-19T00:49:57;101289.00;;;25.00
20736;BMP180;10528;52.124;5.196;2022-08-19T00:52:37;101302.00;;;25.00
20736;BMP180;10528;52.124;5.196;2022-08-19T00:55:08;101294.00;;;25.00
20736;BMP180;10528;52.124;5.196;2022-08-19T00:57:42;101297.00;;;24.90
20736;BMP180;10528;52.124;5.196;2022-08-19T01:00:17;101300.00;;;24.90
20736;BMP180;10528;52.124;5.196;2022-08-19T01:02:45;101301.00;;;24.90
20736;BMP180;10528;52.124;5.196;2022-08-19T01:05:18;101306.00;;;24.90
20736;BMP180;10528;52.124;5.196;2022-08-19T01:07:48;101293.00;;;24.80
20736;BMP180;10528;52.124;5.196;2022-08-19T01:10:23;101294.00;;;24.80
20736;BMP180;10528;52.124;5.196;2022-08-19T01:12:52;101297.00;;;24.80
20736;BMP180;10528;52.124;5.196;2022-08-19T01:15:30;101297.00;;;24.80
20736;BMP180;10528;52.124;5.196;2022-08-19T01:18:02;101294.00;;;24.80
20736;BMP180;10528;52.124;5.196;2022-08-19T01:20:31;101289.00;;;24.70
20736;BMP180;10528;52.124;5.196;2022-08-19T01:23:02;101285.00;;;24.70
20736;BMP180;10528;52.124;5.196;2022-08-19T01:25:42;101284.00;;;24.70
20736;BMP180;10528;52.124;5.196;2022-08-19T01:28:18;101286.00;;;24.70
20736;BMP180;10528;52.124;5.196;2022-08-19T01:30:59;101288.00;;;24.60
20736;BMP180;10528;52.124;5.196;2022-08-19T01:33:25;101294.00;;;24.60
20736;BMP180;10528;52.124;5.196;2022-08-19T01:35:52;101293.00;;;24.60
20736;BMP180;10528;52.124;5.196;2022-08-19T01:38:26;101305.00;;;24.60
20736;BMP180;10528;52.124;5.196;2022-08-19T01:40:53;101307.00;;;24.60
20736;BMP180;10528;52.124;5.196;2022-08-19T01:43:20;101314.00;;;24.60
20736;BMP180;10528;52.124;5.196;2022-08-19T01:45:47;101310.00;;;24.50
20736;BMP180;10528;52.124;5.196;2022-08-19T01:48:15;101314.00;;;24.50
20736;BMP180;10528;52.124;5.196;2022-08-19T01:50:42;101312.00;;;24.50
20736;BMP180;10528;52.124;5.196;2022-08-19T01:53:11;101313.00;;;24.50
20736;BMP180;10528;52.124;5.196;2022-08-19T01:55:42;101308.00;;;24.50
20736;BMP180;10528;52.124;5.196;2022-08-19T01:58:18;101308.00;;;24.40
20736;BMP180;10528;52.124;5.196;2022-08-19T02:00:47;101314.00;;;24.40
20736;BMP180;10528;52.124;5.196;2022-08-19T02:03:14;101310.00;;;24.40
20736;BMP180;10528;52.124;5.196;2022-08-19T02:05:44;101320.00;;;24.40
20736;BMP180;10528;52.124;5.196;2022-08-19T02:08:12;101310.00;;;24.40
20736;BMP180;10528;52.124;5.196;2022-08-19T02:10:43;101305.00;;;24.40
20736;BMP180;10528;52.124;5.196;2022-08-19T02:13:12;101299.00;;;24.30
20736;BMP180;10528;52.124;5.196;2022-08-19T02:15:40;101301.00;;;24.30
20736;BMP180;10528;52.124;5.196;2022-08-19T02:18:07;101306.00;;;24.30
20736;BMP180;10528;52.124;5.196;2022-08-19T02:20:36;101311.00;;;24.30
20736;BMP180;10528;52.124;5.196;2022-08-19T02:23:04;101310.00;;;24.30
20736;BMP180;10528;52.124;5.196;2022-08-19T02:25:39;101298.00;;;24.30
20736;BMP180;10528;52.124;5.196;2022-08-19T02:28:07;101306.00;;;24.30
20736;BMP180;10528;52.124;5.196;2022-08-19T02:30:34;101306.00;;;24.20
20736;BMP180;10528;52.124;5.196;2022-08-19T02:33:00;101310.00;;;24.20
20736;BMP180;10528;52.124;5.196;2022-08-19T02:35:27;101315.00;;;24.20
20736;BMP180;10528;52.124;5.196;2022-08-19T02:37:54;101315.00;;;24.20
20736;BMP180;10528;52.124;5.196;2022-08-19T02:40:39;101320.00;;;24.20
20736;BMP180;10528;52.124;5.196;2022-08-19T02:43:08;101318.00;;;24.20
20736;BMP180;10528;52.124;5.196;2022-08-19T02:45:37;101310.00;;;24.20
20736;BMP180;10528;52.124;5.196;2022-08-19T02:48:07;101317.00;;;24.10
20736;BMP180;10528;52.124;5.196;2022-08-19T02:50:49;101312.00;;;24.10
20736;BMP180;10528;52.124;5.196;2022-08-19T02:53:24;101306.00;;;24.10
20736;BMP180;10528;52.124;5.196;2022-08-19T02:55:51;101297.00;;;24.10
20736;BMP180;10528;52.124;5.196;2022-08-19T02:58:20;101299.00;;;24.10
20736;BMP180;10528;52.124;5.196;2022-08-19T03:00:55;101291.00;;;24.10
20736;BMP180;10528;52.124;5.196;2022-08-19T03:03:22;101302.00;;;24.00
20736;BMP180;10528;52.124;5.196;2022-08-19T03:05:50;101305.00;;;24.00
20736;BMP180;10528;52.124;5.196;2022-08-19T03:08:23;101302.00;;;24.00
20736;BMP180;10528;52.124;5.196;2022-08-19T03:10:52;101306.00;;;24.00
20736;BMP180;10528;52.124;5.196;2022-08-19T03:13:19;101306.00;;;24.00
20736;BMP180;10528;52.124;5.196;2022-08-19T03:15:47;101296.00;;;24.00
20736;BMP180;10528;52.124;5.196;2022-08-19T03:18:15;101292.00;;;23.90
20736;BMP180;10528;52.124;5.196;2022-08-19T03:20:54;101301.00;;;23.90
20736;BMP180;10528;52.124;5.196;2022-08-19T03:23:22;101302.00;;;23.90
20736;BMP180;10528;52.124;5.196;2022-08-19T03:25:51;101292.00;;;23.90
20736;BMP180;10528;52.124;5.196;2022-08-19T03:28:39;101293.00;;;23.90
20736;BMP180;10528;52.124;5.196;2022-08-19T03:31:11;101289.00;;;23.90
20736;BMP180;10528;52.124;5.196;2022-08-19T03:33:58;101298.00;;;23.80
20736;BMP180;10528;52.124;5.196;2022-08-19T03:36:26;101298.00;;;23.80
20736;BMP180;10528;52.124;5.196;2022-08-19T03:39:00;101279.00;;;23.80
20736;BMP180;10528;52.124;5.196;2022-08-19T03:41:36;101283.00;;;23.80
20736;BMP180;10528;52.124;5.196;2022-08-19T03:44:17;101289.00;;;23.80
20736;BMP180;10528;52.124;5.196;2022-08-19T03:46:56;101291.00;;;23.80
20736;BMP180;10528;52.124;5.196;2022-08-19T03:49:30;101282.00;;;23.70
20736;BMP180;10528;52.124;5.196;2022-08-19T03:51:58;101289.00;;;23.70
20736;BMP180;10528;52.124;5.196;2022-08-19T03:54:28;101280.00;;;23.70
20736;BMP180;10528;52.124;5.196;2022-08-19T03:56:56;101278.00;;;23.70
20736;BMP180;10528;52.124;5.196;2022-08-19T03:59:33;101284.00;;;23.70
20736;BMP180;10528;52.124;5.196;2022-08-19T04:02:05;101278.00;;;23.70
20736;BMP180;10528;52.124;5.196;2022-08-19T04:04:39;101296.00;;;23.60
20736;BMP180;10528;52.124;5.196;2022-08-19T04:07:08;101291.00;;;23.60
20736;BMP180;10528;52.124;5.196;2022-08-19T04:09:36;101293.00;;;23.60
20736;BMP180;10528;52.124;5.196;2022-08-19T04:12:04;101296.00;;;23.60
20736;BMP180;10528;52.124;5.196;2022-08-19T04:14:32;101296.00;;;23.60
20736;BMP180;10528;52.124;5.196;2022-08-19T04:17:01;101285.00;;;23.60
20736;BMP180;10528;52.124;5.196;2022-08-19T04:19:31;101290.00;;;23.60
20736;BMP180;10528;52.124;5.196;2022-08-19T04:21:58;101292.00;;;23.50
20736;BMP180;10528;52.124;5.196;2022-08-19T04:24:25;101289.00;;;23.50
20736;BMP180;10528;52.124;5.196;2022-08-19T04:26:53;101281.00;;;23.50
20736;BMP180;10528;52.124;5.196;2022-08-19T04:29:23;101275.00;;;23.50
20736;BMP180;10528;52.124;5.196;2022-08-19T04:31:54;101274.00;;;23.50
20736;BMP180;10528;52.124;5.196;2022-08-19T04:34:25;101271.00;;;23.50
20736;BMP180;10528;52.124;5.196;2022-08-19T04:36:54;101270.00;;;23.50
20736;BMP180;10528;52.124;5.196;2022-08-19T04:39:28;101264.00;;;23.40
20736;BMP180;10528;52.124;5.196;2022-08-19T04:42:17;101271.00;;;23.40
20736;BMP180;10528;52.124;5.196;2022-08-19T04:45:14;101269.00;;;23.40
20736;BMP180;10528;52.124;5.196;2022-08-19T04:47:43;101273.00;;;23.40
20736;BMP180;10528;52.124;5.196;2022-08-19T04:50:26;101283.00;;;23.40
20736;BMP180;10528;52.124;5.196;2022-08-19T04:52:53;101287.00;;;23.40
20736;BMP180;10528;52.124;5.196;2022-08-19T04:55:22;101290.00;;;23.40
20736;BMP180;10528;52.124;5.196;2022-08-19T04:57:52;101289.00;;;23.40
20736;BMP180;10528;52.124;5.196;2022-08-19T05:00:19;101297.00;;;23.40
20736;BMP180;10528;52.124;5.196;2022-08-19T05:02:46;101302.00;;;23.40
20736;BMP180;10528;52.124;5.196;2022-08-19T05:05:12;101299.00;;;23.40
20736;BMP180;10528;52.124;5.196;2022-08-19T05:07:41;101305.00;;;23.50
20736;BMP180;10528;52.124;5.196;2022-08-19T05:10:08;101310.00;;;23.50
20736;BMP180;10528;52.124;5.196;2022-08-19T05:12:35;101301.00;;;23.50
20736;BMP180;10528;52.124;5.196;2022-08-19T05:15:05;101309.00;;;23.50
20736;BMP180;10528;52.124;5.196;2022-08-19T05:17:32;101308.00;;;23.50
20736;BMP180;10528;52.124;5.196;2022-08-19T05:20:07;101316.00;;;23.50
20736;BMP180;10528;52.124;5.196;2022-08-19T05:22:52;101313.00;;;23.60
20736;BMP180;10528;52.124;5.196;2022-08-19T05:25:21;101308.00;;;23.60
20736;BMP180;10528;52.124;5.196;2022-08-19T05:27:48;101313.00;;;23.70
20736;BMP180;10528;52.124;5.196;2022-08-19T05:30:17;101312.00;;;23.70
20736;BMP180;10528;52.124;5.196;2022-08-19T05:32:44;101311.00;;;23.70
20736;BMP180;10528;52.124;5.196;2022-08-19T05:35:11;101306.00;;;23.80
20736;BMP180;10528;52.124;5.196;2022-08-19T05:37:39;101306.00;;;23.80
20736;BMP180;10528;52.124;5.196;2022-08-19T05:40:10;101312.00;;;23.80
20736;BMP180;10528;52.124;5.196;2022-08-19T05:42:37;101310.00;;;23.90
20736;BMP180;10528;52.124;5.196;2022-08-19T05:45:06;101312.00;;;23.90
20736;BMP180;10528;52.124;5.196;2022-08-19T05:47:33;101310.00;;;24.00
20736;BMP180;10528;52.124;5.196;2022-08-19T05:50:08;101307.00;;;24.00
20736;BMP180;10528;52.124;5.196;2022-08-19T05:52:37;101307.00;;;24.10
20736;BMP180;10528;52.124;5.196;2022-08-19T05:55:09;101304.00;;;24.20
20736;BMP180;10528;52.124;5.196;2022-08-19T05:57:37;101305.00;;;24.20
20736;BMP180;10528;52.124;5.196;2022-08-19T06:00:06;101293.00;;;24.30
20736;BMP180;10528;52.124;5.196;2022-08-19T06:02:38;101298.00;;;24.40
20736;BMP180;10528;52.124;5.196;2022-08-19T06:05:07;101298.00;;;24.60
20736;BMP180;10528;52.124;5.196;2022-08-19T06:07:37;101305.00;;;24.70
20736;BMP180;10528;52.124;5.196;2022-08-19T06:10:08;101305.00;;;24.80
20736;BMP180;10528;52.124;5.196;2022-08-19T06:12:36;101303.00;;;24.90
20736;BMP180;10528;52.124;5.196;2022-08-19T06:15:09;101306.00;;;24.90
20736;BMP180;10528;52.124;5.196;2022-08-19T06:17:37;101302.00;;;25.00
20736;BMP180;10528;52.124;5.196;2022-08-19T06:20:08;101308.00;;;25.00
20736;BMP180;10528;52.124;5.196;2022-08-19T06:22:41;101317.00;;;25.00
20736;BMP180;10528;52.124;5.196;2022-08-19T06:25:09;101307.00;;;25.00
20736;BMP180;10528;52.124;5.196;2022-08-19T06:27:36;101310.00;;;25.00
20736;BMP180;10528;52.124;5.196;2022-08-19T06:30:24;101311.00;;;25.00
20736;BMP180;10528;52.124;5.196;2022-08-19T06:32:51;101321.00;;;25.00
20736;BMP180;10528;52.124;5.196;2022-08-19T06:35:18;101318.00;;;25.10
20736;BMP180;10528;52.124;5.196;2022-08-19T06:37:45;101314.00;;;25.10
20736;BMP180;10528;52.124;5.196;2022-08-19T06:40:13;101312.00;;;25.10
20736;BMP180;10528;52.124;5.196;2022-08-19T06:42:40;101313.00;;;25.10
20736;BMP180;10528;52.124;5.196;2022-08-19T06:45:22;101315.00;;;25.10
20736;BMP180;10528;52.124;5.196;2022-08-19T06:47:52;101319.00;;;25.10
20736;BMP180;10528;52.124;5.196;2022-08-19T06:50:25;101307.00;;;25.20
20736;BMP180;10528;52.124;5.196;2022-08-19T06:52:52;101305.00;;;25.20
20736;BMP180;10528;52.124;5.196;2022-08-19T06:55:20;101305.00;;;25.30
20736;BMP180;10528;52.124;5.196;2022-08-19T06:57:46;101306.00;;;25.30
20736;BMP180;10528;52.124;5.196;2022-08-19T07:00:15;101319.00;;;25.40
20736;BMP180;10528;52.124;5.196;2022-08-19T07:02:43;101324.00;;;25.40
20736;BMP180;10528;52.124;5.196;2022-08-19T07:05:18;101311.00;;;25.50
20736;BMP180;10528;52.124;5.196;2022-08-19T07:07:46;101314.00;;;25.50
20736;BMP180;10528;52.124;5.196;2022-08-19T07:10:13;101320.00;;;25.60
20736;BMP180;10528;52.124;5.196;2022-08-19T07:12:40;101323.00;;;25.60
20736;BMP180;10528;52.124;5.196;2022-08-19T07:15:08;101327.00;;;25.70
20736;BMP180;10528;52.124;5.196;2022-08-19T07:17:37;101332.00;;;25.70
20736;BMP180;10528;52.124;5.196;2022-08-19T07:20:09;101332.00;;;25.80
20736;BMP180;10528;52.124;5.196;2022-08-19T07:22:38;101321.00;;;25.80
20736;BMP180;10528;52.124;5.196;2022-08-19T07:25:08;101342.00;;;25.90
20736;BMP180;10528;52.124;5.196;2022-08-19T07:27:36;101343.00;;;25.90
20736;BMP180;10528;52.124;5.196;2022-08-19T07:30:07;101343.00;;;26.00
20736;BMP180;10528;52.124;5.196;2022-08-19T07:32:39;101344.00;;;26.00
20736;BMP180;10528;52.124;5.196;2022-08-19T07:35:06;101341.00;;;26.00
20736;BMP180;10528;52.124;5.196;2022-08-19T07:37:33;101336.00;;;26.10
20736;BMP180;10528;52.124;5.196;2022-08-19T07:40:05;101339.00;;;26.10
20736;BMP180;10528;52.124;5.196;2022-08-19T07:42:32;101338.00;;;26.20
20736;BMP180;10528;52.124;5.196;2022-08-19T07:44:59;101340.00;;;26.20
20736;BMP180;10528;52.124;5.196;2022-08-19T07:47:26;101343.00;;;26.20
20736;BMP180;10528;52.124;5.196;2022-08-19T07:50:15;101347.00;;;26.20
20736;BMP180;10528;52.124;5.196;2022-08-19T07:52:42;101355.00;;;26.20
20736;BMP180;10528;52.124;5.196;2022-08-19T07:55:18;101345.00;;;26.30
20736;BMP180;10528;52.124;5.196;2022-08-19T07:58:05;101351.00;;;26.30
20736;BMP180;10528;52.124;5.196;2022-08-19T08:00:32;101361.00;;;26.30
20736;BMP180;10528;52.124;5.196;2022-08-19T08:03:00;101364.00;;;26.30
20736;BMP180;10528;52.124;5.196;2022-08-19T08:05:27;101360.00;;;26.40
20736;BMP180;10528;52.124;5.196;2022-08-19T08:08:14;101362.00;;;26.40
20736;BMP180;10528;52.124;5.196;2022-08-19T08:11:00;101361.00;;;26.50
20736;BMP180;10528;52.124;5.196;2022-08-19T08:13:28;101359.00;;;26.60
20736;BMP180;10528;52.124;5.196;2022-08-19T08:15:56;101371.00;;;26.60
20736;BMP180;10528;52.124;5.196;2022-08-19T08:18:24;101380.00;;;26.70
20736;BMP180;10528;52.124;5.196;2022-08-19T08:20:57;101373.00;;;26.80
20736;BMP180;10528;52.124;5.196;2022-08-19T08:23:25;101385.00;;;26.80
20736;BMP180;10528;52.124;5.196;2022-08-19T08:25:56;101384.00;;;26.90
20736;BMP180;10528;52.124;5.196;2022-08-19T08:28:26;101377.00;;;26.90
20736;BMP180;10528;52.124;5.196;2022-08-19T08:30:57;101378.00;;;27.00
20736;BMP180;10528;52.124;5.196;2022-08-19T08:33:27;101373.00;;;27.00
20736;BMP180;10528;52.124;5.196;2022-08-19T08:36:08;101376.00;;;27.10
20736;BMP180;10528;52.124;5.196;2022-08-19T08:38:36;101372.00;;;27.20
20736;BMP180;10528;52.124;5.196;2022-08-19T08:41:44;101374.00;;;27.20
20736;BMP180;10528;52.124;5.196;2022-08-19T08:44:32;101371.00;;;27.40
20736;BMP180;10528;52.124;5.196;2022-08-19T08:47:13;101384.00;;;27.50
20736;BMP180;10528;52.124;5.196;2022-08-19T08:52:28;101376.00;;;27.70
20736;BMP180;10528;52.124;5.196;2022-08-19T08:55:07;101382.00;;;27.80
20736;BMP180;10528;52.124;5.196;2022-08-19T09:00:27;101378.00;;;28.00
20736;BMP180;10528;52.124;5.196;2022-08-19T09:02:57;101380.00;;;28.00
20736;BMP180;10528;52.124;5.196;2022-08-19T09:05:41;101372.00;;;28.10
20736;BMP180;10528;52.124;5.196;2022-08-19T09:08:32;101376.00;;;28.10
20736;BMP180;10528;52.124;5.196;2022-08-19T09:11:04;101378.00;;;28.10
20736;BMP180;10528;52.124;5.196;2022-08-19T09:14:24;101387.00;;;28.10
20736;BMP180;10528;52.124;5.196;2022-08-19T09:17:15;101386.00;;;28.20
20736;BMP180;10528;52.124;5.196;2022-08-19T09:20:01;101397.00;;;28.10
20736;BMP180;10528;52.124;5.196;2022-08-19T09:22:37;101390.00;;;28.20
20736;BMP180;10528;52.124;5.196;2022-08-19T09:25:08;101390.00;;;28.20
20736;BMP180;10528;52.124;5.196;2022-08-19T09:27:38;101390.00;;;28.20
20736;BMP180;10528;52.124;5.196;2022-08-19T09:30:21;101398.00;;;28.30
20736;BMP180;10528;52.124;5.196;2022-08-19T09:32:48;101397.00;;;28.30
20736;BMP180;10528;52.124;5.196;2022-08-19T09:35:21;101404.00;;;28.30
20736;BMP180;10528;52.124;5.196;2022-08-19T09:37:50;101396.00;;;28.40
20736;BMP180;10528;52.124;5.196;2022-08-19T09:40:24;101397.00;;;28.40
20736;BMP180;10528;52.124;5.196;2022-08-19T09:42:52;101401.00;;;28.40
20736;BMP180;10528;52.124;5.196;2022-08-19T09:45:21;101403.00;;;28.40
20736;BMP180;10528;52.124;5.196;2022-08-19T09:47:51;101408.00;;;28.40
20736;BMP180;10528;52.124;5.196;2022-08-19T09:50:22;101402.00;;;28.40
20736;BMP180;10528;52.124;5.196;2022-08-19T09:52:50;101404.00;;;28.50
20736;BMP180;10528;52.124;5.196;2022-08-19T09:55:25;101398.00;;;28.50
20736;BMP180;10528;52.124;5.196;2022-08-19T09:58:01;101396.00;;;28.50
20736;BMP180;10528;52.124;5.196;2022-08-19T10:00:29;101403.00;;;28.60
20736;BMP180;10528;52.124;5.196;2022-08-19T10:02:57;101405.00;;;28.60
20736;BMP180;10528;52.124;5.196;2022-08-19T10:05:24;101399.00;;;28.60
20736;BMP180;10528;52.124;5.196;2022-08-19T10:08:10;101395.00;;;28.60
20736;BMP180;10528;52.124;5.196;2022-08-19T10:10:41;101390.00;;;28.60
20736;BMP180;10528;52.124;5.196;2022-08-19T10:13:17;101401.00;;;28.70
20736;BMP180;10528;52.124;5.196;2022-08-19T10:15:45;101391.00;;;28.80
20736;BMP180;10528;52.124;5.196;2022-08-19T10:18:15;101397.00;;;28.80
20736;BMP180;10528;52.124;5.196;2022-08-19T10:20:46;101390.00;;;28.90
20736;BMP180;10528;52.124;5.196;2022-08-19T10:23:19;101396.00;;;28.90
20736;BMP180;10528;52.124;5.196;2022-08-19T10:25:47;101401.00;;;29.00
20736;BMP180;10528;52.124;5.196;2022-08-19T10:28:14;101385.00;;;29.00
20736;BMP180;10528;52.124;5.196;2022-08-19T10:30:41;101387.00;;;29.00
20736;BMP180;10528;52.124;5.196;2022-08-19T10:33:09;101384.00;;;29.00
20736;BMP180;10528;52.124;5.196;2022-08-19T10:35:37;101391.00;;;29.10
20736;BMP180;10528;52.124;5.196;2022-08-19T10:38:23;101389.00;;;29.10
20736;BMP180;10528;52.124;5.196;2022-08-19T10:41:09;101391.00;;;29.20
20736;BMP180;10528;52.124;5.196;2022-08-19T10:43:37;101388.00;;;29.30
20736;BMP180;10528;52.124;5.196;2022-08-19T10:46:12;101384.00;;;29.30
20736;BMP180;10528;52.124;5.196;2022-08-19T10:48:43;101386.00;;;29.40
20736;BMP180;10528;52.124;5.196;2022-08-19T10:51:12;101380.00;;;29.40
20736;BMP180;10528;52.124;5.196;2022-08-19T10:53:59;101387.00;;;29.50
20736;BMP180;10528;52.124;5.196;2022-08-19T10:56:28;101386.00;;;29.50
20736;BMP180;10528;52.124;5.196;2022-08-19T10:59:14;101393.00;;;29.50
20736;BMP180;10528;52.124;5.196;2022-08-19T11:01:44;101375.00;;;29.50
20736;BMP180;10528;52.124;5.196;2022-08-19T11:04:12;101385.00;;;29.50
20736;BMP180;10528;52.124;5.196;2022-08-19T11:06:41;101383.00;;;29.50
20736;BMP180;10528;52.124;5.196;2022-08-19T11:09:10;101383.00;;;29.50
20736;BMP180;10528;52.124;5.196;2022-08-19T11:11:39;101382.00;;;29.60
20736;BMP180;10528;52.124;5.196;2022-08-19T11:14:16;101377.00;;;29.60
20736;BMP180;10528;52.124;5.196;2022-08-19T11:16:45;101374.00;;;29.70
20736;BMP180;10528;52.124;5.196;2022-08-19T11:19:12;101377.00;;;29.60
20736;BMP180;10528;52.124;5.196;2022-08-19T11:21:46;101378.00;;;29.70
20736;BMP180;10528;52.124;5.196;2022-08-19T11:24:20;101365.00;;;29.80
20736;BMP180;10528;52.124;5.196;2022-08-19T11:26:53;101373.00;;;29.80
20736;BMP180;10528;52.124;5.196;2022-08-19T11:29:23;101364.00;;;29.90
20736;BMP180;10528;52.124;5.196;2022-08-19T11:31:54;101371.00;;;29.90
20736;BMP180;10528;52.124;5.196;2022-08-19T11:34:26;101357.00;;;29.90
20736;BMP180;10528;52.124;5.196;2022-08-19T11:36:55;101370.00;;;30.00
20736;BMP180;10528;52.124;5.196;2022-08-19T11:39:29;101362.00;;;30.00
20736;BMP180;10528;52.124;5.196;2022-08-19T11:42:01;101374.00;;;29.90
20736;BMP180;10528;52.124;5.196;2022-08-19T11:44:29;101369.00;;;29.90
20736;BMP180;10528;52.124;5.196;2022-08-19T11:46:57;101361.00;;;29.90
20736;BMP180;10528;52.124;5.196;2022-08-19T11:49:34;101373.00;;;29.80
20736;BMP180;10528;52.124;5.196;2022-08-19T11:52:03;101362.00;;;29.80
20736;BMP180;10528;52.124;5.196;2022-08-19T11:54:29;101357.00;;;29.70
20736;BMP180;10528;52.124;5.196;2022-08-19T11:56:57;101370.00;;;29.70
20736;BMP180;10528;52.124;5.196;2022-08-19T11:59:24;101371.00;;;29.70
20736;BMP180;10528;52.124;5.196;2022-08-19T12:01:53;101379.00;;;29.70
20736;BMP180;10528;52.124;5.196;2022-08-19T12:04:20;101367.00;;;29.70
20736;BMP180;10528;52.124;5.196;2022-08-19T12:06:47;101384.00;;;29.70
20736;BMP180;10528;52.124;5.196;2022-08-19T12:09:14;101385.00;;;29.70
20736;BMP180;10528;52.124;5.196;2022-08-19T12:11:42;101382.00;;;29.70
20736;BMP180;10528;52.124;5.196;2022-08-19T12:14:12;101390.00;;;29.60
20736;BMP180;10528;52.124;5.196;2022-08-19T12:16:41;101384.00;;;29.60
20736;BMP180;10528;52.124;5.196;2022-08-19T12:19:17;101396.00;;;29.60
20736;BMP180;10528;52.124;5.196;2022-08-19T12:21:49;101396.00;;;29.50
20736;BMP180;10528;52.124;5.196;2022-08-19T12:24:17;101392.00;;;29.50
20736;BMP180;10528;52.124;5.196;2022-08-19T12:26:50;101387.00;;;29.50
20736;BMP180;10528;52.124;5.196;2022-08-19T12:29:20;101385.00;;;29.50
20736;BMP180;10528;52.124;5.196;2022-08-19T12:31:50;101375.00;;;29.60
20736;BMP180;10528;52.124;5.196;2022-08-19T12:34:17;101367.00;;;29.60
20736;BMP180;10528;52.124;5.196;2022-08-19T12:36:46;101370.00;;;29.60
20736;BMP180;10528;52.124;5.196;2022-08-19T12:39:15;101363.00;;;29.60
20736;BMP180;10528;52.124;5.196;2022-08-19T12:41:42;101362.00;;;29.70
20736;BMP180;10528;52.124;5.196;2022-08-19T12:44:21;101369.00;;;29.70
20736;BMP180;10528;52.124;5.196;2022-08-19T12:46:56;101366.00;;;29.70
20736;BMP180;10528;52.124;5.196;2022-08-19T12:49:23;101372.00;;;29.70
20736;BMP180;10528;52.124;5.196;2022-08-19T12:52:12;101373.00;;;29.70
20736;BMP180;10528;52.124;5.196;2022-08-19T12:54:43;101368.00;;;29.70
20736;BMP180;10528;52.124;5.196;2022-08-19T12:57:10;101365.00;;;29.70
20736;BMP180;10528;52.124;5.196;2022-08-19T12:59:38;101379.00;;;29.70
20736;BMP180;10528;52.124;5.196;2022-08-19T13:02:07;101378.00;;;29.60
20736;BMP180;10528;52.124;5.196;2022-08-19T13:04:35;101367.00;;;29.60
20736;BMP180;10528;52.124;5.196;2022-08-19T13:07:03;101365.00;;;29.50
20736;BMP180;10528;52.124;5.196;2022-08-19T13:09:30;101368.00;;;29.50
20736;BMP180;10528;52.124;5.196;2022-08-19T13:11:57;101367.00;;;29.40
20736;BMP180;10528;52.124;5.196;2022-08-19T13:14:24;101371.00;;;29.40
20736;BMP180;10528;52.124;5.196;2022-08-19T13:16:52;101371.00;;;29.40
20736;BMP180;10528;52.124;5.196;2022-08-19T13:19:19;101362.00;;;29.40
20736;BMP180;10528;52.124;5.196;2022-08-19T13:21:50;101370.00;;;29.40
20736;BMP180;10528;52.124;5.196;2022-08-19T13:24:26;101372.00;;;29.40
20736;BMP180;10528;52.124;5.196;2022-08-19T13:27:00;101372.00;;;29.30
20736;BMP180;10528;52.124;5.196;2022-08-19T13:29:27;101366.00;;;29.40
20736;BMP180;10528;52.124;5.196;2022-08-19T13:32:30;101362.00;;;29.40
20736;BMP180;10528;52.124;5.196;2022-08-19T13:35:16;101362.00;;;29.40
20736;BMP180;10528;52.124;5.196;2022-08-19T13:37:44;101367.00;;;29.40
20736;BMP180;10528;52.124;5.196;2022-08-19T13:40:22;101372.00;;;29.40
20736;BMP180;10528;52.124;5.196;2022-08-19T13:42:54;101367.00;;;29.40
20736;BMP180;10528;52.124;5.196;2022-08-19T13:45:24;101367.00;;;29.40
20736;BMP180;10528;52.124;5.196;2022-08-19T13:47:54;101359.00;;;29.40
20736;BMP180;10528;52.124;5.196;2022-08-19T13:50:30;101369.00;;;29.40
20736;BMP180;10528;52.124;5.196;2022-08-19T13:52:58;101361.00;;;29.40
20736;BMP180;10528;52.124;5.196;2022-08-19T13:55:26;101360.00;;;29.40
20736;BMP180;10528;52.124;5.196;2022-08-19T13:57:57;101362.00;;;29.40
20736;BMP180;10528;52.124;5.196;2022-08-19T14:00:27;101363.00;;;29.40
20736;BMP180;10528;52.124;5.196;2022-08-19T14:02:56;101361.00;;;29.50
20736;BMP180;10528;52.124;5.196;2022-08-19T14:05:27;101360.00;;;29.50
20736;BMP180;10528;52.124;5.196;2022-08-19T14:07:55;101349.00;;;29.50
20736;BMP180;10528;52.124;5.196;2022-08-19T14:10:24;101366.00;;;29.50
20736;BMP180;10528;52.124;5.196;2022-08-19T14:12:57;101358.00;;;29.50
20736;BMP180;10528;52.124;5.196;2022-08-19T14:15:26;101356.00;;;29.50
20736;BMP180;10528;52.124;5.196;2022-08-19T14:17:53;101347.00;;;29.50
20736;BMP180;10528;52.124;5.196;2022-08-19T14:20:21;101349.00;;;29.50
20736;BMP180;10528;52.124;5.196;2022-08-19T14:22:54;101350.00;;;29.50
20736;BMP180;10528;52.124;5.196;2022-08-19T14:25:25;101359.00;;;29.50